sensor_id;sensor_type;location;lat;lon;timestamp;P1;durP1;ratioP1;P2;durP2;ratioP2
22308;SDS011;11322;50.858;-1.778;2023-02-01T00:00:34;1.15;;;1.1;;
22308;SDS011;11322;50.858;-1.778;2023-02-01T00:05:34;2.45;;;1.75;;
22308;SDS011;11322;50.858;-1.778;2023-02-01T00:10:34;10.2;;;1.2;;
22308;SDS011;11322;50.858;-1.778;2023-02-01T00:15:34;1.65;;;1.55;;
22308;SDS011;11322;50.858;-1.778;2023-02-01T00:20:34;1.45;;;1.2;;
22308;SDS011;11322;50.858;-1.778;2023-02-01T00:25:34;3.8;;;1.25;;
22308;SDS011;11322;50.858;-1.778;2023-02-01T00:30:34;15.55;;;3.0;;
22308;SDS011;11322;50.858;-1.778;2023-02-01T00:35:34;2.05;;;1.95;;
22308;SDS011;11322;50.858;-1.778;2023-02-01T00:40:34;1.8;;;1.55;;
22308;SDS011;11322;50.858;-1.778;2023-02-01T00:45:39;16.45;;;2.2;;
22308;SDS011;11322;50.858;-1.778;2023-02-01T00:50:34;0.2;;;0.2;;
22308;SDS011;11322;50.858;-1.778;2023-02-01T00:55:34;2.8;;;0.8;;
22308;SDS011;11322;50.858;-1.778;2023-02-01T01:00:34;1.85;;;1.15;;
22308;SDS011;11322;50.858;-1.778;2023-02-01T01:05:34;0.6;;;0.6;;
22308;SDS011;11322;50.858;-1.778;2023-02-01T01:10:34;2.25;;;1.85;;
22308;SDS011;11322;50.858;-1.778;2023-02-01T01:15:35;7.3;;;2.2;;
22308;SDS011;11322;50.858;-1.778;2023-02-01T01:20:34;0.7;;;0.7;;
22308;SDS011;11322;50.858;-1.778;2023-02-01T01:25:36;1.1;;;0.8;;
22308;SDS011;11322;50.858;-1.778;2023-02-01T01:30:34;0.5;;;0.5;;
22308;SDS011;11322;50.858;-1.778;2023-02-01T01:35:34;0.75;;;0.7;;
22308;SDS011;11322;50.858;-1.778;2023-02-01T01:40:34;0.55;;;0.55;;
22308;SDS011;11322;50.858;-1.778;2023-02-01T01:45:34;2.5;;;0.85;;
22308;SDS011;11322;50.858;-1.778;2023-02-01T01:50:35;3.1;;;1.0;;
22308;SDS011;11322;50.858;-1.778;2023-02-01T01:55:35;1.3;;;0.5;;
22308;SDS011;11322;50.858;-1.778;2023-02-01T02:00:34;0.45;;;0.45;;
22308;SDS011;11322;50.858;-1.778;2023-02-01T02:05:34;3.55;;;1.9;;
22308;SDS011;11322;50.858;-1.778;2023-02-01T02:10:34;0.2;;;0.2;;
22308;SDS011;11322;50.858;-1.778;2023-02-01T02:15:34;0.85;;;0.85;;
22308;SDS011;11322;50.858;-1.778;2023-02-01T02:20:45;0.3;;;0.3;;
22308;SDS011;11322;50.858;-1.778;2023-02-01T02:25:42;0.6;;;0.6;;
22308;SDS011;11322;50.858;-1.778;2023-02-01T02:30:37;3.1;;;1.1;;
22308;SDS011;11322;50.858;-1.778;2023-02-01T02:35:36;0.3;;;0.3;;
22308;SDS011;11322;50.858;-1.778;2023-02-01T02:40:35;7.35;;;1.05;;
22308;SDS011;11322;50.858;-1.778;2023-02-01T02:45:35;1.25;;;1.0;;
22308;SDS011;11322;50.858;-1.778;2023-02-01T02:50:34;0.4;;;0.4;;
22308;SDS011;11322;50.858;-1.778;2023-02-01T02:55:34;0.65;;;0.65;;
22308;SDS011;11322;50.858;-1.778;2023-02-01T03:00:39;1.85;;;1.45;;
22308;SDS011;11322;50.858;-1.778;2023-02-01T03:05:34;1.1;;;1.0;;
22308;SDS011;11322;50.858;-1.778;2023-02-01T03:10:37;1.3;;;1.2;;
22308;SDS011;11322;50.858;-1.778;2023-02-01T03:15:36;1.5;;;1.0;;
22308;SDS011;11322;50.858;-1.778;2023-02-01T03:20:34;0.9;;;0.6;;
22308;SDS011;11322;50.858;-1.778;2023-02-01T03:25:34;1.7;;;1.6;;
22308;SDS011;11322;50.858;-1.778;2023-02-01T03:30:34;0.3;;;0.3;;
22308;SDS011;11322;50.858;-1.778;2023-02-01T03:35:36;0.45;;;0.45;;
22308;SDS011;11322;50.858;-1.778;2023-02-01T03:40:34;1.05;;;0.3;;
22308;SDS011;11322;50.858;-1.778;2023-02-01T03:45:34;1.8;;;1.6;;
22308;SDS011;11322;50.858;-1.778;2023-02-01T03:50:34;1.55;;;1.1;;
22308;SDS011;11322;50.858;-1.778;2023-02-01T03:55:34;0.3;;;0.3;;
22308;SDS011;11322;50.858;-1.778;2023-02-01T04:00:34;0.8;;;0.8;;
22308;SDS011;11322;50.858;-1.778;2023-02-01T04:05:34;0.5;;;0.5;;
22308;SDS011;11322;50.858;-1.778;2023-02-01T04:10:34;0.3;;;0.3;;
22308;SDS011;11322;50.858;-1.778;2023-02-01T04:15:34;0.55;;;0.45;;
22308;SDS011;11322;50.858;-1.778;2023-02-01T04:20:34;0.15;;;0.15;;
22308;SDS011;11322;50.858;-1.778;2023-02-01T04:25:34;0.3;;;0.3;;
22308;SDS011;11322;50.858;-1.778;2023-02-01T04:30:34;2.0;;;1.15;;
22308;SDS011;11322;50.858;-1.778;2023-02-01T04:35:34;2.95;;;0.9;;
22308;SDS011;11322;50.858;-1.778;2023-02-01T04:40:34;0.3;;;0.3;;
22308;SDS011;11322;50.858;-1.778;2023-02-01T04:45:34;7.05;;;1.2;;
22308;SDS011;11322;50.858;-1.778;2023-02-01T04:50:34;0.2;;;0.2;;
22308;SDS011;11322;50.858;-1.778;2023-02-01T04:55:34;6.1;;;0.95;;
22308;SDS011;11322;50.858;-1.778;2023-02-01T05:00:34;4.6;;;1.5;;
22308;SDS011;11322;50.858;-1.778;2023-02-01T05:05:39;1.05;;;1.0;;
22308;SDS011;11322;50.858;-1.778;2023-02-01T05:10:34;1.25;;;0.8;;
22308;SDS011;11322;50.858;-1.778;2023-02-01T05:15:34;0.6;;;0.6;;
22308;SDS011;11322;50.858;-1.778;2023-02-01T05:20:34;3.2;;;0.55;;
22308;SDS011;11322;50.858;-1.778;2023-02-01T05:25:34;0.3;;;0.3;;
22308;SDS011;11322;50.858;-1.778;2023-02-01T05:30:39;0.25;;;0.25;;
22308;SDS011;11322;50.858;-1.778;2023-02-01T05:35:34;1.6;;;0.75;;
22308;SDS011;11322;50.858;-1.778;2023-02-01T05:40:34;3.5;;;1.8;;
22308;SDS011;11322;50.858;-1.778;2023-02-01T05:45:34;0.45;;;0.45;;
22308;SDS011;11322;50.858;-1.778;2023-02-01T05:50:34;0.75;;;0.7;;
22308;SDS011;11322;50.858;-1.778;2023-02-01T05:55:34;2.7;;;1.5;;
22308;SDS011;11322;50.858;-1.778;2023-02-01T06:00:34;0.2;;;0.2;;
22308;SDS011;11322;50.858;-1.778;2023-02-01T06:05:34;0.4;;;0.4;;
22308;SDS011;11322;50.858;-1.778;2023-02-01T06:10:34;2.3;;;1.05;;
22308;SDS011;11322;50.858;-1.778;2023-02-01T06:15:34;0.4;;;0.4;;
22308;SDS011;11322;50.858;-1.778;2023-02-01T06:20:34;0.1;;;0.1;;
22308;SDS011;11322;50.858;-1.778;2023-02-01T06:25:34;2.15;;;0.85;;
22308;SDS011;11322;50.858;-1.778;2023-02-01T06:30:34;0.7;;;0.7;;
22308;SDS011;11322;50.858;-1.778;2023-02-01T06:35:34;1.05;;;0.95;;
22308;SDS011;11322;50.858;-1.778;2023-02-01T06:40:34;1.15;;;1.0;;
22308;SDS011;11322;50.858;-1.778;2023-02-01T06:45:34;0.9;;;0.9;;
22308;SDS011;11322;50.858;-1.778;2023-02-01T06:50:34;0.55;;;0.55;;
22308;SDS011;11322;50.858;-1.778;2023-02-01T06:55:34;3.95;;;0.75;;
22308;SDS011;11322;50.858;-1.778;2023-02-01T07:00:34;1.55;;;1.45;;
22308;SDS011;11322;50.858;-1.778;2023-02-01T07:05:34;1.5;;;1.35;;
22308;SDS011;11322;50.858;-1.778;2023-02-01T07:10:34;0.45;;;0.45;;
22308;SDS011;11322;50.858;-1.778;2023-02-01T07:15:34;0.95;;;0.7;;
22308;SDS011;11322;50.858;-1.778;2023-02-01T07:20:34;4.7;;;0.8;;
22308;SDS011;11322;50.858;-1.778;2023-02-01T07:25:36;0.7;;;0.7;;
22308;SDS011;11322;50.858;-1.778;2023-02-01T07:30:35;0.6;;;0.6;;
22308;SDS011;11322;50.858;-1.778;2023-02-01T07:35:35;0.8;;;0.8;;
22308;SDS011;11322;50.858;-1.778;2023-02-01T07:40:35;1.55;;;1.35;;
22308;SDS011;11322;50.858;-1.778;2023-02-01T07:45:34;0.25;;;0.25;;
22308;SDS011;11322;50.858;-1.778;2023-02-01T07:50:34;2.8;;;1.05;;
22308;SDS011;11322;50.858;-1.778;2023-02-01T07:55:34;1.25;;;1.15;;
22308;SDS011;11322;50.858;-1.778;2023-02-01T08:00:34;0.2;;;0.2;;
22308;SDS011;11322;50.858;-1.778;2023-02-01T08:05:34;2.05;;;0.95;;
22308;SDS011;11322;50.858;-1.778;2023-02-01T08:10:34;2.35;;;1.75;;
22308;SDS011;11322;50.858;-1.778;2023-02-01T08:15:34;0.55;;;0.55;;
22308;SDS011;11322;50.858;-1.778;2023-02-01T08:20:34;0.6;;;0.6;;
22308;SDS011;11322;50.858;-1.778;2023-02-01T08:25:34;0.9;;;0.9;;
22308;SDS011;11322;50.858;-1.778;2023-02-01T08:30:35;1.35;;;1.25;;
22308;SDS011;11322;50.858;-1.778;2023-02-01T08:35:35;2.2;;;1.0;;
22308;SDS011;11322;50.858;-1.778;2023-02-01T08:40:34;0.95;;;0.95;;
22308;SDS011;11322;50.858;-1.778;2023-02-01T08:45:34;0.55;;;0.55;;
22308;SDS011;11322;50.858;-1.778;2023-02-01T08:55:34;5.7;;;2.5;;
22308;SDS011;11322;50.858;-1.778;2023-02-01T09:00:46;0.55;;;0.55;;
22308;SDS011;11322;50.858;-1.778;2023-02-01T09:05:34;1.25;;;0.8;;
22308;SDS011;11322;50.858;-1.778;2023-02-01T09:10:34;3.7;;;1.4;;
22308;SDS011;11322;50.858;-1.778;2023-02-01T09:15:34;0.5;;;0.5;;
22308;SDS011;11322;50.858;-1.778;2023-02-01T09:20:34;0.35;;;0.35;;
22308;SDS011;11322;50.858;-1.778;2023-02-01T09:25:34;8.65;;;0.8;;
22308;SDS011;11322;50.858;-1.778;2023-02-01T09:30:34;0.6;;;0.6;;
22308;SDS011;11322;50.858;-1.778;2023-02-01T09:35:34;1.3;;;1.15;;
22308;SDS011;11322;50.858;-1.778;2023-02-01T09:40:34;11.5;;;2.05;;
22308;SDS011;11322;50.858;-1.778;2023-02-01T09:45:36;7.85;;;2.05;;
22308;SDS011;11322;50.858;-1.778;2023-02-01T09:50:34;0.4;;;0.25;;
22308;SDS011;11322;50.858;-1.778;2023-02-01T09:55:36;2.15;;;1.3;;
22308;SDS011;11322;50.858;-1.778;2023-02-01T10:00:35;7.55;;;2.05;;
22308;SDS011;11322;50.858;-1.778;2023-02-01T10:05:38;7.45;;;2.75;;
22308;SDS011;11322;50.858;-1.778;2023-02-01T10:10:35;4.65;;;1.1;;
22308;SDS011;11322;50.858;-1.778;2023-02-01T10:15:37;11.9;;;3.4;;
22308;SDS011;11322;50.858;-1.778;2023-02-01T10:20:36;0.65;;;0.65;;
22308;SDS011;11322;50.858;-1.778;2023-02-01T10:25:36;6.25;;;1.15;;
22308;SDS011;11322;50.858;-1.778;2023-02-01T10:30:37;0.85;;;0.85;;
22308;SDS011;11322;50.858;-1.778;2023-02-01T10:35:34;6.9;;;0.9;;
22308;SDS011;11322;50.858;-1.778;2023-02-01T10:40:34;1.6;;;1.3;;
22308;SDS011;11322;50.858;-1.778;2023-02-01T10:45:34;5.9;;;0.8;;
22308;SDS011;11322;50.858;-1.778;2023-02-01T10:50:35;1.5;;;1.4;;
22308;SDS011;11322;50.858;-1.778;2023-02-01T10:55:36;2.55;;;2.05;;
22308;SDS011;11322;50.858;-1.778;2023-02-01T11:00:37;3.35;;;0.8;;
22308;SDS011;11322;50.858;-1.778;2023-02-01T11:05:42;8.2;;;2.8;;
22308;SDS011;11322;50.858;-1.778;2023-02-01T11:10:35;1.1;;;0.7;;
22308;SDS011;11322;50.858;-1.778;2023-02-01T11:15:34;4.05;;;0.95;;
22308;SDS011;11322;50.858;-1.778;2023-02-01T11:20:35;1.2;;;1.05;;
22308;SDS011;11322;50.858;-1.778;2023-02-01T11:25:34;0.8;;;0.35;;
22308;SDS011;11322;50.858;-1.778;2023-02-01T11:30:34;0.3;;;0.3;;
22308;SDS011;11322;50.858;-1.778;2023-02-01T11:35:34;0.6;;;0.6;;
22308;SDS011;11322;50.858;-1.778;2023-02-01T11:40:34;7.25;;;2.9;;
22308;SDS011;11322;50.858;-1.778;2023-02-01T11:45:53;20.85;;;1.5;;
22308;SDS011;11322;50.858;-1.778;2023-02-01T11:50:35;2.95;;;1.65;;
22308;SDS011;11322;50.858;-1.778;2023-02-01T11:55:38;11.85;;;4.7;;
22308;SDS011;11322;50.858;-1.778;2023-02-01T12:00:39;1.3;;;1.2;;
22308;SDS011;11322;50.858;-1.778;2023-02-01T12:05:36;4.5;;;2.15;;
22308;SDS011;11322;50.858;-1.778;2023-02-01T12:11:52;21.6;;;3.15;;
22308;SDS011;11322;50.858;-1.778;2023-02-01T12:15:38;6.45;;;1.4;;
22308;SDS011;11322;50.858;-1.778;2023-02-01T12:20:37;6.3;;;2.15;;
22308;SDS011;11322;50.858;-1.778;2023-02-01T12:25:36;11.15;;;2.95;;
22308;SDS011;11322;50.858;-1.778;2023-02-01T12:30:39;1.2;;;1.1;;
22308;SDS011;11322;50.858;-1.778;2023-02-01T12:35:38;11.2;;;2.25;;
22308;SDS011;11322;50.858;-1.778;2023-02-01T12:40:40;10.35;;;1.5;;
22308;SDS011;11322;50.858;-1.778;2023-02-01T12:45:34;2.55;;;1.0;;
22308;SDS011;11322;50.858;-1.778;2023-02-01T12:50:35;4.1;;;1.85;;
22308;SDS011;11322;50.858;-1.778;2023-02-01T12:55:35;3.7;;;0.8;;
22308;SDS011;11322;50.858;-1.778;2023-02-01T13:00:35;11.9;;;1.7;;
22308;SDS011;11322;50.858;-1.778;2023-02-01T13:05:35;13.15;;;2.9;;
22308;SDS011;11322;50.858;-1.778;2023-02-01T13:10:34;1.0;;;0.55;;
22308;SDS011;11322;50.858;-1.778;2023-02-01T13:15:36;8.95;;;1.5;;
22308;SDS011;11322;50.858;-1.778;2023-02-01T13:20:35;6.8;;;1.25;;
22308;SDS011;11322;50.858;-1.778;2023-02-01T13:25:46;3.5;;;1.4;;
22308;SDS011;11322;50.858;-1.778;2023-02-01T13:30:37;0.6;;;0.4;;
22308;SDS011;11322;50.858;-1.778;2023-02-01T13:35:38;1.85;;;1.2;;
22308;SDS011;11322;50.858;-1.778;2023-02-01T13:40:36;7.1;;;2.95;;
22308;SDS011;11322;50.858;-1.778;2023-02-01T13:45:34;8.55;;;2.35;;
22308;SDS011;11322;50.858;-1.778;2023-02-01T13:50:34;8.65;;;5.55;;
22308;SDS011;11322;50.858;-1.778;2023-02-01T13:55:34;0.95;;;0.85;;
22308;SDS011;11322;50.858;-1.778;2023-02-01T14:00:34;4.55;;;3.4;;
22308;SDS011;11322;50.858;-1.778;2023-02-01T14:06:00;9.75;;;2.1;;
22308;SDS011;11322;50.858;-1.778;2023-02-01T14:10:46;2.0;;;1.85;;
22308;SDS011;11322;50.858;-1.778;2023-02-01T14:15:35;3.0;;;1.2;;
22308;SDS011;11322;50.858;-1.778;2023-02-01T14:20:39;4.15;;;0.6;;
22308;SDS011;11322;50.858;-1.778;2023-02-01T14:25:34;12.0;;;0.75;;
22308;SDS011;11322;50.858;-1.778;2023-02-01T14:30:34;3.2;;;1.5;;
22308;SDS011;11322;50.858;-1.778;2023-02-01T14:35:39;5.0;;;1.05;;
22308;SDS011;11322;50.858;-1.778;2023-02-01T14:40:34;1.95;;;1.0;;
22308;SDS011;11322;50.858;-1.778;2023-02-01T14:45:48;11.35;;;1.7;;
22308;SDS011;11322;50.858;-1.778;2023-02-01T14:50:34;4.5;;;1.0;;
22308;SDS011;11322;50.858;-1.778;2023-02-01T14:55:35;1.85;;;1.6;;
22308;SDS011;11322;50.858;-1.778;2023-02-01T15:00:34;7.9;;;1.35;;
22308;SDS011;11322;50.858;-1.778;2023-02-01T15:05:34;2.95;;;1.7;;
22308;SDS011;11322;50.858;-1.778;2023-02-01T15:10:39;21.5;;;2.3;;
22308;SDS011;11322;50.858;-1.778;2023-02-01T15:15:34;2.75;;;1.05;;
22308;SDS011;11322;50.858;-1.778;2023-02-01T15:20:34;2.3;;;1.1;;
22308;SDS011;11322;50.858;-1.778;2023-02-01T15:25:34;1.15;;;1.05;;
22308;SDS011;11322;50.858;-1.778;2023-02-01T15:30:34;0.9;;;0.7;;
22308;SDS011;11322;50.858;-1.778;2023-02-01T15:35:35;11.05;;;1.4;;
22308;SDS011;11322;50.858;-1.778;2023-02-01T15:40:34;5.6;;;1.95;;
22308;SDS011;11322;50.858;-1.778;2023-02-01T15:45:34;10.0;;;4.8;;
22308;SDS011;11322;50.858;-1.778;2023-02-01T15:50:34;20.85;;;6.2;;
22308;SDS011;11322;50.858;-1.778;2023-02-01T15:55:34;11.05;;;3.1;;
22308;SDS011;11322;50.858;-1.778;2023-02-01T16:00:35;12.75;;;3.45;;
22308;SDS011;11322;50.858;-1.778;2023-02-01T16:05:36;9.95;;;3.0;;
22308;SDS011;11322;50.858;-1.778;2023-02-01T16:10:38;9.4;;;5.6;;
22308;SDS011;11322;50.858;-1.778;2023-02-01T16:15:34;19.45;;;7.2;;
22308;SDS011;11322;50.858;-1.778;2023-02-01T16:20:34;16.4;;;7.1;;
22308;SDS011;11322;50.858;-1.778;2023-02-01T16:25:34;11.2;;;2.8;;
22308;SDS011;11322;50.858;-1.778;2023-02-01T16:30:34;8.95;;;2.55;;
22308;SDS011;11322;50.858;-1.778;2023-02-01T16:35:34;9.15;;;1.65;;
22308;SDS011;11322;50.858;-1.778;2023-02-01T16:40:34;6.65;;;4.4;;
22308;SDS011;11322;50.858;-1.778;2023-02-01T16:45:34;10.6;;;3.15;;
22308;SDS011;11322;50.858;-1.778;2023-02-01T16:50:34;8.35;;;5.65;;
22308;SDS011;11322;50.858;-1.778;2023-02-01T16:55:34;5.9;;;4.05;;
22308;SDS011;11322;50.858;-1.778;2023-02-01T17:00:34;14.8;;;3.25;;
22308;SDS011;11322;50.858;-1.778;2023-02-01T17:05:34;5.1;;;2.25;;
22308;SDS011;11322;50.858;-1.778;2023-02-01T17:10:34;3.6;;;2.5;;
22308;SDS011;11322;50.858;-1.778;2023-02-01T17:15:34;6.35;;;1.95;;
22308;SDS011;11322;50.858;-1.778;2023-02-01T17:20:34;7.65;;;2.1;;
22308;SDS011;11322;50.858;-1.778;2023-02-01T17:25:34;3.4;;;1.4;;
22308;SDS011;11322;50.858;-1.778;2023-02-01T17:30:34;6.95;;;1.95;;
22308;SDS011;11322;50.858;-1.778;2023-02-01T17:35:34;6.3;;;2.25;;
22308;SDS011;11322;50.858;-1.778;2023-02-01T17:40:34;1.7;;;1.6;;
22308;SDS011;11322;50.858;-1.778;2023-02-01T17:45:34;1.05;;;0.7;;
22308;SDS011;11322;50.858;-1.778;2023-02-01T17:50:35;13.0;;;1.15;;
22308;SDS011;11322;50.858;-1.778;2023-02-01T17:55:34;9.75;;;1.5;;
22308;SDS011;11322;50.858;-1.778;2023-02-01T18:00:34;1.1;;;1.0;;
22308;SDS011;11322;50.858;-1.778;2023-02-01T18:05:37;14.15;;;6.8;;
22308;SDS011;11322;50.858;-1.778;2023-02-01T18:10:34;34.0;;;17.85;;
22308;SDS011;11322;50.858;-1.778;2023-02-01T18:15:34;16.15;;;8.05;;
22308;SDS011;11322;50.858;-1.778;2023-02-01T18:20:34;87.55;;;26.4;;
22308;SDS011;11322;50.858;-1.778;2023-02-01T18:25:34;35.8;;;11.65;;
22308;SDS011;11322;50.858;-1.778;2023-02-01T18:30:34;22.4;;;11.65;;
22308;SDS011;11322;50.858;-1.778;2023-02-01T18:35:34;21.2;;;11.1;;
22308;SDS011;11322;50.858;-1.778;2023-02-01T18:40:34;9.85;;;5.2;;
22308;SDS011;11322;50.858;-1.778;2023-02-01T18:45:34;16.75;;;7.95;;
22308;SDS011;11322;50.858;-1.778;2023-02-01T18:50:34;17.25;;;10.1;;
22308;SDS011;11322;50.858;-1.778;2023-02-01T18:55:34;23.2;;;7.45;;
22308;SDS011;11322;50.858;-1.778;2023-02-01T19:00:34;5.75;;;4.9;;
22308;SDS011;11322;50.858;-1.778;2023-02-01T19:05:34;9.3;;;5.0;;
22308;SDS011;11322;50.858;-1.778;2023-02-01T19:10:34;10.05;;;4.8;;
22308;SDS011;11322;50.858;-1.778;2023-02-01T19:15:34;3.3;;;1.6;;
22308;SDS011;11322;50.858;-1.778;2023-02-01T19:20:35;7.95;;;4.0;;
22308;SDS011;11322;50.858;-1.778;2023-02-01T19:25:34;7.0;;;3.35;;
22308;SDS011;11322;50.858;-1.778;2023-02-01T19:30:34;2.85;;;1.25;;
22308;SDS011;11322;50.858;-1.778;2023-02-01T19:35:34;5.7;;;2.45;;
22308;SDS011;11322;50.858;-1.778;2023-02-01T19:40:34;3.6;;;1.8;;
22308;SDS011;11322;50.858;-1.778;2023-02-01T19:45:34;9.35;;;2.4;;
22308;SDS011;11322;50.858;-1.778;2023-02-01T19:50:34;1.45;;;1.2;;
22308;SDS011;11322;50.858;-1.778;2023-02-01T19:55:34;1.3;;;1.15;;
22308;SDS011;11322;50.858;-1.778;2023-02-01T20:00:34;2.15;;;1.6;;
22308;SDS011;11322;50.858;-1.778;2023-02-01T20:05:34;15.6;;;3.2;;
22308;SDS011;11322;50.858;-1.778;2023-02-01T20:10:34;5.15;;;2.95;;
22308;SDS011;11322;50.858;-1.778;2023-02-01T20:15:34;3.4;;;0.9;;
22308;SDS011;11322;50.858;-1.778;2023-02-01T20:20:34;2.4;;;1.35;;
22308;SDS011;11322;50.858;-1.778;2023-02-01T20:25:34;2.3;;;0.95;;
22308;SDS011;11322;50.858;-1.778;2023-02-01T20:30:34;3.15;;;2.3;;
22308;SDS011;11322;50.858;-1.778;2023-02-01T20:35:34;0.8;;;0.8;;
22308;SDS011;11322;50.858;-1.778;2023-02-01T20:40:36;1.8;;;1.7;;
22308;SDS011;11322;50.858;-1.778;2023-02-01T20:45:35;2.4;;;1.9;;
22308;SDS011;11322;50.858;-1.778;2023-02-01T20:50:34;4.2;;;1.35;;
22308;SDS011;11322;50.858;-1.778;2023-02-01T20:55:34;1.1;;;1.1;;
22308;SDS011;11322;50.858;-1.778;2023-02-01T21:00:34;8.35;;;1.75;;
22308;SDS011;11322;50.858;-1.778;2023-02-01T21:05:34;4.4;;;3.05;;
22308;SDS011;11322;50.858;-1.778;2023-02-01T21:10:34;3.85;;;2.05;;
22308;SDS011;11322;50.858;-1.778;2023-02-01T21:15:34;4.25;;;1.7;;
22308;SDS011;11322;50.858;-1.778;2023-02-01T21:20:34;5.15;;;3.1;;
22308;SDS011;11322;50.858;-1.778;2023-02-01T21:25:37;5.65;;;1.4;;
22308;SDS011;11322;50.858;-1.778;2023-02-01T21:30:34;2.6;;;2.25;;
22308;SDS011;11322;50.858;-1.778;2023-02-01T21:35:34;3.05;;;0.95;;
22308;SDS011;11322;50.858;-1.778;2023-02-01T21:40:34;8.45;;;2.3;;
22308;SDS011;11322;50.858;-1.778;2023-02-01T21:45:34;2.85;;;1.55;;
22308;SDS011;11322;50.858;-1.778;2023-02-01T21:50:34;1.85;;;1.45;;
22308;SDS011;11322;50.858;-1.778;2023-02-01T21:55:34;12.85;;;1.95;;
22308;SDS011;11322;50.858;-1.778;2023-02-01T22:00:34;3.3;;;1.55;;
22308;SDS011;11322;50.858;-1.778;2023-02-01T22:05:34;1.7;;;1.45;;
22308;SDS011;11322;50.858;-1.778;2023-02-01T22:10:34;3.85;;;2.3;;
22308;SDS011;11322;50.858;-1.778;2023-02-01T22:15:34;6.15;;;2.25;;
22308;SDS011;11322;50.858;-1.778;2023-02-01T22:20:34;5.15;;;1.6;;
22308;SDS011;11322;50.858;-1.778;2023-02-01T22:25:34;3.85;;;1.25;;
22308;SDS011;11322;50.858;-1.778;2023-02-01T22:30:35;5.7;;;2.05;;
22308;SDS011;11322;50.858;-1.778;2023-02-01T22:35:35;0.65;;;0.65;;
22308;SDS011;11322;50.858;-1.778;2023-02-01T22:40:34;7.5;;;2.8;;
22308;SDS011;11322;50.858;-1.778;2023-02-01T22:45:35;5.75;;;0.8;;
22308;SDS011;11322;50.858;-1.778;2023-02-01T22:50:34;0.7;;;0.6;;
22308;SDS011;11322;50.858;-1.778;2023-02-01T22:55:34;7.75;;;1.25;;
22308;SDS011;11322;50.858;-1.778;2023-02-01T23:00:34;0.5;;;0.5;;
22308;SDS011;11322;50.858;-1.778;2023-02-01T23:05:34;5.85;;;1.9;;
22308;SDS011;11322;50.858;-1.778;2023-02-01T23:10:34;0.6;;;0.55;;
22308;SDS011;11322;50.858;-1.778;2023-02-01T23:15:36;1.4;;;1.3;;
22308;SDS011;11322;50.858;-1.778;2023-02-01T23:20:34;1.55;;;1.45;;
22308;SDS011;11322;50.858;-1.778;2023-02-01T23:25:34;10.45;;;0.85;;
22308;SDS011;11322;50.858;-1.778;2023-02-01T23:30:34;2.3;;;0.75;;
22308;SDS011;11322;50.858;-1.778;2023-02-01T23:35:34;1.4;;;0.9;;
22308;SDS011;11322;50.858;-1.778;2023-02-01T23:40:34;13.3;;;0.55;;
22308;SDS011;11322;50.858;-1.778;2023-02-01T23:45:34;0.9;;;0.9;;
22308;SDS011;11322;50.858;-1.778;2023-02-01T23:50:34;0.65;;;0.4;;
22308;SDS011;11322;50.858;-1.778;2023-02-01T23:55:34;1.0;;;0.9;;
